createdAt,value
2022-10-28T00:00:06.878Z,6.63
2022-10-28T00:01:11.780Z,6.90
2022-10-28T00:02:13.812Z,7.40
2022-10-28T00:03:15.452Z,7.40
2022-10-28T00:04:17.156Z,7.23
2022-10-28T00:05:18.799Z,7.17
2022-10-28T00:06:42.180Z,8.00
2022-10-28T00:07:43.759Z,6.57
2022-10-28T00:08:45.735Z,7.00
2022-10-28T00:09:47.355Z,6.87
2022-10-28T00:10:48.962Z,6.13
2022-10-28T00:11:50.576Z,6.77
2022-10-28T00:12:52.158Z,7.67
2022-10-28T00:14:00.330Z,6.90
2022-10-28T00:15:02.594Z,6.80
2022-10-28T00:16:25.836Z,6.93
2022-10-28T00:17:27.454Z,6.27
2022-10-28T00:18:29.704Z,6.90
2022-10-28T00:19:31.517Z,6.50
2022-10-28T00:20:33.168Z,6.70
2022-10-28T00:21:36.989Z,6.93
2022-10-28T00:22:38.579Z,6.73
2022-10-28T00:23:40.202Z,7.07
2022-10-28T00:24:41.804Z,7.30
2022-10-28T00:25:43.418Z,7.40
2022-10-28T00:26:45.909Z,6.67
2022-10-28T00:27:47.555Z,6.67
2022-10-28T00:28:54.578Z,7.23
2022-10-28T00:29:56.907Z,7.27
2022-10-28T00:31:04.720Z,7.47
2022-10-28T00:32:06.528Z,7.00
2022-10-28T00:33:08.114Z,6.83
2022-10-28T00:34:13.440Z,7.03
2022-10-28T00:35:15.081Z,7.40
2022-10-28T00:36:25.487Z,6.72
2022-10-28T00:37:27.062Z,6.77
2022-10-28T00:38:30.677Z,6.67
2022-10-28T00:39:32.263Z,6.50
2022-10-28T00:40:35.111Z,7.53
2022-10-28T00:41:39.722Z,7.10
2022-10-28T00:42:41.311Z,7.78
2022-10-28T00:43:50.907Z,6.97
2022-10-28T00:44:55.340Z,6.60
2022-10-28T00:45:57.015Z,7.40
2022-10-28T00:46:58.803Z,7.23
2022-10-28T00:48:02.983Z,6.23
2022-10-28T00:49:06.452Z,6.73
2022-10-28T00:50:12.963Z,7.30
2022-10-28T00:51:16.009Z,7.30
2022-10-28T00:52:24.269Z,6.17
2022-10-28T00:53:31.422Z,7.57
2022-10-28T00:54:33.585Z,6.80
2022-10-28T00:55:36.433Z,7.57
2022-10-28T00:56:41.238Z,7.90
2022-10-28T00:57:44.655Z,7.30
2022-10-28T00:58:48.532Z,6.97
2022-10-28T00:59:52.998Z,7.67
2022-10-28T01:00:55.178Z,7.10
2022-10-28T01:01:57.085Z,8.30
2022-10-28T01:02:58.773Z,7.73
2022-10-28T01:04:01.304Z,7.70
2022-10-28T01:06:06.825Z,7.63
2022-10-28T01:07:09.196Z,7.60
2022-10-28T01:08:11.512Z,7.57
2022-10-28T01:09:13.167Z,7.63
2022-10-28T01:10:15.464Z,7.40
2022-10-28T01:11:54.911Z,7.23
2022-10-28T01:13:16.018Z,7.47
2022-10-28T01:15:05.499Z,7.20
2022-10-28T01:16:17.012Z,7.23
2022-10-28T01:17:30.338Z,7.30
2022-10-28T01:18:54.394Z,6.77
2022-10-28T01:20:11.015Z,7.17
2022-10-28T01:21:50.445Z,6.70
2022-10-28T01:23:24.233Z,6.77
2022-10-28T01:24:57.981Z,7.17
2022-10-28T01:26:32.304Z,7.47
2022-10-28T01:27:33.842Z,6.63
2022-10-28T01:29:05.960Z,7.55
2022-10-28T01:30:09.457Z,7.30
2022-10-28T01:31:33.502Z,6.80
2022-10-28T01:32:45.761Z,6.88
2022-10-28T01:33:59.269Z,7.00
2022-10-28T01:35:19.082Z,6.90
2022-10-28T01:36:36.693Z,7.33
2022-10-28T01:37:42.417Z,6.87
2022-10-28T01:39:38.397Z,7.27
2022-10-28T01:41:03.951Z,6.67
2022-10-28T01:42:28.637Z,6.90
2022-10-28T01:43:39.095Z,6.93
2022-10-28T01:44:46.096Z,7.75
2022-10-28T01:46:08.394Z,7.03
2022-10-28T01:47:35.659Z,7.07
2022-10-28T01:49:02.734Z,7.18
2022-10-28T01:50:18.175Z,6.88
2022-10-28T01:51:31.435Z,6.95
2022-10-28T01:52:33.498Z,7.10
2022-10-28T01:53:39.514Z,6.85
2022-10-28T01:54:45.692Z,8.23
2022-10-28T01:55:52.846Z,7.15
2022-10-28T01:56:57.906Z,7.85
2022-10-28T01:58:02.021Z,7.10
2022-10-28T01:59:07.738Z,6.93
2022-10-28T02:00:10.140Z,6.45
2022-10-28T02:01:13.331Z,6.97
2022-10-28T02:02:17.375Z,7.53
2022-10-28T02:03:19.010Z,8.27
2022-10-28T02:04:20.618Z,7.33
2022-10-28T02:05:42.829Z,7.45
2022-10-28T02:06:48.019Z,7.53
2022-10-28T02:07:55.140Z,7.70
2022-10-28T02:09:05.274Z,8.00
2022-10-28T02:10:22.775Z,7.25
2022-10-28T02:11:55.154Z,7.80
2022-10-28T02:12:59.222Z,7.57
2022-10-28T02:14:22.622Z,7.18
2022-10-28T02:16:00.995Z,6.88
2022-10-28T02:17:09.256Z,7.82
2022-10-28T02:18:30.248Z,7.55
2022-10-28T02:19:49.436Z,7.53
2022-10-28T02:21:02.753Z,7.28
2022-10-28T02:24:18.567Z,8.57
2022-10-28T02:25:22.361Z,7.40
2022-10-28T02:26:34.960Z,7.67
2022-10-28T02:27:56.418Z,8.15
2022-10-28T02:29:16.689Z,6.97
2022-10-28T02:30:28.539Z,7.50
2022-10-28T02:31:35.341Z,7.40
2022-10-28T02:32:44.998Z,7.40
2022-10-28T02:33:53.032Z,7.50
2022-10-28T02:34:58.227Z,7.60
2022-10-28T02:36:28.420Z,8.53
2022-10-28T02:37:33.289Z,7.87
2022-10-28T02:38:43.832Z,7.40
2022-10-28T02:39:52.392Z,7.30
2022-10-28T02:40:58.914Z,7.70
2022-10-28T02:42:10.598Z,7.30
2022-10-28T02:43:15.413Z,7.03
2022-10-28T02:44:23.764Z,7.53
2022-10-28T02:45:47.843Z,7.77
2022-10-28T02:46:51.255Z,6.90
2022-10-28T02:48:00.706Z,8.40
2022-10-28T02:49:08.748Z,8.87
2022-10-28T02:50:15.830Z,7.33
2022-10-28T02:51:21.730Z,7.23
2022-10-28T02:52:26.143Z,7.47
2022-10-28T02:53:32.794Z,6.43
2022-10-28T02:54:54.978Z,7.77
2022-10-28T02:55:59.323Z,7.43
2022-10-28T02:57:09.505Z,6.90
2022-10-28T02:58:11.803Z,7.40
2022-10-28T02:59:13.601Z,7.73
2022-10-28T03:00:19.795Z,7.70
2022-10-28T03:01:21.467Z,7.50
2022-10-28T03:02:24.143Z,8.15
2022-10-28T03:03:25.861Z,7.10
2022-10-28T03:04:27.502Z,7.30
2022-10-28T03:05:29.252Z,7.27
2022-10-28T03:06:31.096Z,8.63
2022-10-28T03:07:32.775Z,6.95
2022-10-28T03:08:34.357Z,8.10
2022-10-28T03:09:35.975Z,7.97
2022-10-28T03:10:37.582Z,7.43
2022-10-28T03:11:39.163Z,6.83
2022-10-28T03:12:40.738Z,8.53
2022-10-28T03:13:42.355Z,7.45
2022-10-28T03:14:44.053Z,7.22
2022-10-28T03:15:47.014Z,6.87
2022-10-28T03:16:48.620Z,7.90
2022-10-28T03:17:50.309Z,7.53
2022-10-28T03:18:52.376Z,7.40
2022-10-28T03:19:53.984Z,6.67
2022-10-28T03:20:58.155Z,7.07
2022-10-28T03:22:00.797Z,7.03
2022-10-28T03:23:02.460Z,6.33
2022-10-28T03:24:04.300Z,6.13
2022-10-28T03:25:06.141Z,7.47
2022-10-28T03:26:07.752Z,7.70
2022-10-28T03:27:09.423Z,7.07
2022-10-28T03:28:11.046Z,7.03
2022-10-28T03:29:12.769Z,7.37
2022-10-28T03:30:14.600Z,6.57
2022-10-28T03:31:17.087Z,6.90
2022-10-28T03:32:18.786Z,6.57
2022-10-28T03:33:20.448Z,6.80
2022-10-28T03:34:22.014Z,7.13
2022-10-28T03:35:24.132Z,6.43
2022-10-28T03:36:25.791Z,6.50
2022-10-28T03:37:27.346Z,6.30
2022-10-28T03:38:28.954Z,7.00
2022-10-28T03:39:30.569Z,6.87
2022-10-28T03:40:32.432Z,7.03
2022-10-28T03:41:34.011Z,6.30
2022-10-28T03:42:38.853Z,7.10
2022-10-28T03:43:42.733Z,7.37
2022-10-28T03:44:44.319Z,7.63
2022-10-28T03:45:45.977Z,6.25
2022-10-28T03:46:47.585Z,6.72
2022-10-28T03:47:49.174Z,7.63
2022-10-28T03:48:50.835Z,7.60
2022-10-28T03:49:52.433Z,8.07
2022-10-28T03:50:54.815Z,7.03
2022-10-28T03:51:56.415Z,6.45
2022-10-28T03:52:58.049Z,6.13
2022-10-28T03:53:59.772Z,7.07
2022-10-28T03:55:01.358Z,7.35
2022-10-28T03:56:03.319Z,7.00
2022-10-28T03:57:04.915Z,7.03
2022-10-28T03:58:06.558Z,6.55
2022-10-28T03:59:13.196Z,6.25
2022-10-28T04:00:17.220Z,7.32
2022-10-28T04:01:18.867Z,6.80
2022-10-28T04:02:20.903Z,6.32
2022-10-28T04:03:24.205Z,9.02
2022-10-28T04:04:28.464Z,6.75
2022-10-28T04:05:32.461Z,6.27
2022-10-28T04:06:34.379Z,6.57
2022-10-28T04:07:36.037Z,6.88
2022-10-28T04:08:38.987Z,6.13
2022-10-28T04:09:42.676Z,7.78
2022-10-28T04:10:47.459Z,6.28
2022-10-28T04:11:49.552Z,6.43
2022-10-28T04:12:51.354Z,6.95
2022-10-28T04:13:53.123Z,6.50
2022-10-28T04:14:54.701Z,7.63
2022-10-28T04:15:56.527Z,6.63
2022-10-28T04:16:58.197Z,7.13
2022-10-28T04:17:59.972Z,5.80
2022-10-28T04:19:01.550Z,6.60
2022-10-28T04:20:03.919Z,6.93
2022-10-28T04:21:06.367Z,6.57
2022-10-28T04:22:09.108Z,7.10
2022-10-28T04:23:19.861Z,6.60
2022-10-28T04:24:21.588Z,7.33
2022-10-28T04:25:26.306Z,7.10
2022-10-28T04:26:28.024Z,7.00
2022-10-28T04:27:29.644Z,7.53
2022-10-28T04:28:31.276Z,6.37
2022-10-28T04:29:32.907Z,6.60
2022-10-28T04:30:34.513Z,7.60
2022-10-28T04:31:36.096Z,6.67
2022-10-28T04:32:37.694Z,6.73
2022-10-28T04:33:39.358Z,7.13
2022-10-28T04:34:40.932Z,6.07
2022-10-28T04:35:45.373Z,6.33
2022-10-28T04:36:46.983Z,7.03
2022-10-28T04:37:48.590Z,6.80
2022-10-28T04:38:51.885Z,6.10
2022-10-28T04:39:53.491Z,7.13
2022-10-28T04:40:55.179Z,6.57
2022-10-28T04:41:56.792Z,7.40
2022-10-28T04:42:58.398Z,7.00
2022-10-28T04:43:59.994Z,5.83
2022-10-28T04:45:01.743Z,7.77
2022-10-28T04:46:05.912Z,7.03
2022-10-28T04:47:07.704Z,7.40
2022-10-28T04:48:10.501Z,7.00
2022-10-28T04:49:12.084Z,8.03
2022-10-28T04:50:13.835Z,7.40
2022-10-28T04:51:15.425Z,6.43
2022-10-28T04:52:17.044Z,6.53
2022-10-28T04:53:18.802Z,7.20
2022-10-28T04:54:20.419Z,6.90
2022-10-28T04:55:22.099Z,6.90
2022-10-28T04:56:23.690Z,6.83
2022-10-28T04:57:25.362Z,6.60
2022-10-28T04:58:27.478Z,6.37
2022-10-28T04:59:29.133Z,6.90
2022-10-28T05:00:31.168Z,6.27
2022-10-28T05:01:32.863Z,5.97
2022-10-28T05:02:34.518Z,6.07
2022-10-28T05:03:36.483Z,7.10
2022-10-28T05:04:38.165Z,5.60
2022-10-28T05:05:40.820Z,6.23
2022-10-28T05:06:42.494Z,6.60
2022-10-28T05:07:44.201Z,6.00
2022-10-28T05:08:45.868Z,5.77
2022-10-28T05:09:47.444Z,5.87
2022-10-28T05:10:51.013Z,5.90
2022-10-28T05:11:52.660Z,5.83
2022-10-28T05:12:54.343Z,6.07
2022-10-28T05:13:56.124Z,5.80
2022-10-28T05:14:57.720Z,5.70
2022-10-28T05:15:59.325Z,5.70
2022-10-28T05:17:00.963Z,5.97
2022-10-28T05:18:02.565Z,5.90
2022-10-28T05:19:04.197Z,5.53
2022-10-28T05:20:06.808Z,5.50
2022-10-28T05:21:08.445Z,5.83
2022-10-28T05:22:10.025Z,6.37
2022-10-28T05:23:11.639Z,5.17
2022-10-28T05:24:13.227Z,5.13
2022-10-28T05:25:14.996Z,6.03
2022-10-28T05:26:16.651Z,6.53
2022-10-28T05:27:18.260Z,6.00
2022-10-28T05:28:20.007Z,5.60
2022-10-28T05:29:21.771Z,6.00
2022-10-28T05:30:23.335Z,5.70
2022-10-28T05:31:24.984Z,5.80
2022-10-28T05:32:26.595Z,5.50
2022-10-28T05:33:28.232Z,5.70
2022-10-28T05:34:29.837Z,6.37
2022-10-28T05:35:31.504Z,5.60
2022-10-28T05:36:33.074Z,5.70
2022-10-28T05:37:34.708Z,5.40
2022-10-28T05:38:36.328Z,6.17
2022-10-28T05:39:37.956Z,5.90
2022-10-28T05:40:39.607Z,6.60
2022-10-28T05:41:41.204Z,5.47
2022-10-28T05:42:44.316Z,5.60
2022-10-28T05:43:45.915Z,5.73
2022-10-28T05:44:47.531Z,5.40
2022-10-28T05:45:53.637Z,5.63
2022-10-28T05:46:55.699Z,6.67
2022-10-28T05:47:57.765Z,6.80
2022-10-28T05:48:59.379Z,6.37
2022-10-28T05:50:01.191Z,6.80
2022-10-28T05:51:02.780Z,7.43
2022-10-28T05:52:04.550Z,6.23
2022-10-28T05:53:06.158Z,6.60
2022-10-28T05:54:07.863Z,6.33
2022-10-28T05:55:09.922Z,6.20
2022-10-28T05:56:11.568Z,6.93
2022-10-28T05:57:13.233Z,6.57
2022-10-28T05:58:15.422Z,6.70
2022-10-28T05:59:17.003Z,5.67
2022-10-28T06:00:21.938Z,6.93
2022-10-28T06:01:23.628Z,7.40
2022-10-28T06:02:25.209Z,6.10
2022-10-28T06:03:30.223Z,7.90
2022-10-28T06:04:33.416Z,6.20
2022-10-28T06:05:39.390Z,6.83
2022-10-28T06:06:41.063Z,5.97
2022-10-28T06:07:42.988Z,6.63
2022-10-28T06:08:44.575Z,6.07
2022-10-28T06:09:46.188Z,6.70
2022-10-28T06:10:51.108Z,6.97
2022-10-28T06:11:52.708Z,6.57
2022-10-28T06:12:55.403Z,6.13
2022-10-28T06:13:56.989Z,6.20
2022-10-28T06:14:59.431Z,7.10
2022-10-28T06:16:01.354Z,6.00
2022-10-28T06:17:03.215Z,6.17
2022-10-28T06:18:04.957Z,5.87
2022-10-28T06:19:06.540Z,8.10
2022-10-28T06:20:08.704Z,7.70
2022-10-28T06:21:10.398Z,8.10
2022-10-28T06:22:12.236Z,11.83
2022-10-28T06:23:13.813Z,9.40
2022-10-28T06:24:15.440Z,7.87
2022-10-28T06:25:18.132Z,10.43
2022-10-28T06:26:19.756Z,7.73
2022-10-28T06:27:21.363Z,7.37
2022-10-28T06:28:23.049Z,7.00
2022-10-28T06:29:25.235Z,7.60
2022-10-28T06:30:27.252Z,7.50
2022-10-28T06:31:28.881Z,7.30
2022-10-28T06:32:30.476Z,7.70
2022-10-28T06:33:32.091Z,7.30
2022-10-28T06:34:33.694Z,7.33
2022-10-28T06:35:35.276Z,7.07
2022-10-28T06:36:37.512Z,7.50
2022-10-28T06:37:39.234Z,6.80
2022-10-28T06:38:40.940Z,7.37
2022-10-28T06:39:44.169Z,7.03
2022-10-28T06:40:49.017Z,6.63
2022-10-28T06:41:53.932Z,7.00
2022-10-28T06:42:57.005Z,6.63
2022-10-28T06:43:58.718Z,5.80
2022-10-28T06:45:00.343Z,7.00
2022-10-28T06:46:03.863Z,8.20
2022-10-28T06:47:06.988Z,7.10
2022-10-28T06:48:10.320Z,7.30
2022-10-28T06:49:11.948Z,7.20
2022-10-28T06:50:13.584Z,6.80
2022-10-28T06:51:17.082Z,7.70
2022-10-28T06:52:18.688Z,6.00
2022-10-28T06:53:20.343Z,6.37
2022-10-28T06:54:21.930Z,6.30
2022-10-28T06:55:24.793Z,6.07
2022-10-28T06:56:26.437Z,6.17
2022-10-28T06:57:29.303Z,6.90
2022-10-28T06:58:31.123Z,7.17
2022-10-28T06:59:32.712Z,7.20
2022-10-28T07:00:34.759Z,7.37
2022-10-28T07:01:36.455Z,5.97
2022-10-28T07:02:42.715Z,7.40
2022-10-28T07:03:47.444Z,6.57
2022-10-28T07:04:49.081Z,7.27
2022-10-28T07:05:51.474Z,6.33
2022-10-28T07:06:56.896Z,6.70
2022-10-28T07:07:58.571Z,6.20
2022-10-28T07:09:00.148Z,6.83
2022-10-28T07:10:01.799Z,6.40
2022-10-28T07:11:03.616Z,7.20
2022-10-28T07:12:07.138Z,7.57
2022-10-28T07:13:08.834Z,6.43
2022-10-28T07:14:10.848Z,5.70
2022-10-28T07:15:12.519Z,6.73
2022-10-28T07:16:14.086Z,5.97
2022-10-28T07:17:15.676Z,5.50
2022-10-28T07:18:17.320Z,6.83
2022-10-28T07:19:22.510Z,7.00
2022-10-28T07:20:27.641Z,6.20
2022-10-28T07:21:29.783Z,6.40
2022-10-28T07:22:31.429Z,6.70
2022-10-28T07:23:34.150Z,6.70
2022-10-28T07:24:35.730Z,7.43
2022-10-28T07:25:37.337Z,6.43
2022-10-28T07:26:38.988Z,6.50
2022-10-28T07:27:40.557Z,6.50
2022-10-28T07:28:42.869Z,6.07
2022-10-28T07:29:44.532Z,5.73
2022-10-28T07:30:46.135Z,6.47
2022-10-28T07:31:47.743Z,7.33
2022-10-28T07:32:49.350Z,6.70
2022-10-28T07:33:54.900Z,6.93
2022-10-28T07:34:56.472Z,7.00
2022-10-28T07:35:58.079Z,6.43
2022-10-28T07:36:59.690Z,6.30
2022-10-28T07:38:01.335Z,6.77
2022-10-28T07:39:03.176Z,7.30
2022-10-28T07:40:05.786Z,6.50
2022-10-28T07:41:09.238Z,8.00
2022-10-28T07:42:10.832Z,7.30
2022-10-28T07:43:12.504Z,8.80
2022-10-28T07:44:14.839Z,7.73
2022-10-28T07:45:17.192Z,10.20
2022-10-28T07:46:19.402Z,8.33
2022-10-28T07:47:22.098Z,7.83
2022-10-28T07:48:24.229Z,6.77
2022-10-28T07:49:25.932Z,6.37
2022-10-28T07:50:27.622Z,6.97
2022-10-28T07:51:29.192Z,5.70
2022-10-28T07:52:30.829Z,5.63
2022-10-28T07:53:33.484Z,6.50
2022-10-28T07:54:35.131Z,6.73
2022-10-28T07:55:36.856Z,7.70
2022-10-28T07:56:38.466Z,7.13
2022-10-28T07:57:40.233Z,5.47
2022-10-28T07:58:43.563Z,5.33
2022-10-28T07:59:45.535Z,5.90
2022-10-28T08:00:47.150Z,5.77
2022-10-28T08:01:48.887Z,5.60
2022-10-28T08:02:50.715Z,4.60
2022-10-28T08:03:52.327Z,5.80
2022-10-28T08:04:54.031Z,5.40
2022-10-28T08:06:03.686Z,5.07
2022-10-28T08:07:05.279Z,5.63
2022-10-28T08:08:06.864Z,4.33
2022-10-28T08:09:08.545Z,4.80
2022-10-28T08:10:10.234Z,4.80
2022-10-28T08:11:19.007Z,4.63
2022-10-28T08:12:20.637Z,5.37
2022-10-28T08:13:22.708Z,4.77
2022-10-28T08:14:24.314Z,4.30
2022-10-28T08:15:26.207Z,4.43
2022-10-28T08:16:28.999Z,4.30
2022-10-28T08:17:32.174Z,4.50
2022-10-28T08:18:34.700Z,4.47
2022-10-28T08:19:36.346Z,4.60
2022-10-28T08:20:37.952Z,4.57
2022-10-28T08:21:39.588Z,4.37
2022-10-28T08:22:41.167Z,4.90
2022-10-28T08:23:46.506Z,4.47
2022-10-28T08:24:48.229Z,4.30
2022-10-28T08:25:51.444Z,4.70
2022-10-28T08:26:53.085Z,3.83
2022-10-28T08:27:54.682Z,4.70
2022-10-28T08:28:56.444Z,4.40
2022-10-28T08:29:58.023Z,4.20
2022-10-28T08:31:08.761Z,4.37
2022-10-28T08:32:10.898Z,3.60
2022-10-28T08:33:13.522Z,4.47
2022-10-28T08:34:15.188Z,4.30
2022-10-28T08:35:16.820Z,4.63
2022-10-28T08:36:18.707Z,3.87
2022-10-28T08:37:20.489Z,4.00
2022-10-28T08:38:22.130Z,4.80
2022-10-28T08:39:23.746Z,5.00
2022-10-28T08:40:50.727Z,4.53
2022-10-28T08:42:02.664Z,5.00
2022-10-28T08:43:20.748Z,3.50
2022-10-28T08:44:50.300Z,4.40
2022-10-28T08:46:01.365Z,3.83
2022-10-28T08:47:14.955Z,4.23
2022-10-28T08:48:37.673Z,4.40
2022-10-28T08:49:43.410Z,4.70
2022-10-28T08:50:52.953Z,4.57
2022-10-28T08:52:05.826Z,4.53
2022-10-28T08:53:12.940Z,4.40
2022-10-28T08:54:24.428Z,4.20
2022-10-28T08:55:34.289Z,4.43
2022-10-28T08:56:45.864Z,4.30
2022-10-28T08:57:53.760Z,4.27
2022-10-28T08:59:00.274Z,4.90
2022-10-28T09:00:05.012Z,4.70
2022-10-28T09:01:13.592Z,3.80
2022-10-28T09:02:24.024Z,4.00
2022-10-28T09:03:39.002Z,4.20
2022-10-28T09:04:46.275Z,4.87
2022-10-28T09:05:50.450Z,4.10
2022-10-28T09:06:52.302Z,4.63
2022-10-28T09:07:55.481Z,4.70
2022-10-28T09:08:58.935Z,5.20
2022-10-28T09:10:00.563Z,4.97
2022-10-28T09:11:10.962Z,4.73
2022-10-28T09:12:18.471Z,3.97
2022-10-28T09:13:43.496Z,4.30
2022-10-28T09:15:21.978Z,4.83
2022-10-28T09:16:28.519Z,4.97
2022-10-28T09:17:48.819Z,4.63
2022-10-28T09:18:56.214Z,4.20
2022-10-28T09:20:20.950Z,4.57
2022-10-28T09:21:32.594Z,3.90
2022-10-28T09:22:45.297Z,5.00
2022-10-28T09:23:58.662Z,4.30
2022-10-28T09:25:13.710Z,4.13
2022-10-28T09:26:33.975Z,4.60
2022-10-28T09:28:26.383Z,4.07
2022-10-28T09:29:49.235Z,4.60
2022-10-28T09:31:14.974Z,3.90
2022-10-28T09:32:26.005Z,4.17
2022-10-28T09:33:33.342Z,4.50
2022-10-28T09:34:58.207Z,4.10
2022-10-28T09:36:00.751Z,3.40
2022-10-28T09:37:17.946Z,3.50
2022-10-28T09:38:30.390Z,3.73
2022-10-28T09:40:27.533Z,2.67
2022-10-28T09:41:36.927Z,4.50
2022-10-28T09:43:07.014Z,3.37
2022-10-28T09:44:20.420Z,3.30
2022-10-28T09:45:25.657Z,3.50
2022-10-28T09:46:33.238Z,3.70
2022-10-28T09:47:42.191Z,3.00
2022-10-28T09:48:57.111Z,3.57
2022-10-28T09:50:03.297Z,3.40
2022-10-28T09:51:05.737Z,3.10
2022-10-28T09:52:22.471Z,3.00
2022-10-28T09:53:40.872Z,3.67
2022-10-28T09:54:46.294Z,2.87
2022-10-28T09:55:50.144Z,3.50
2022-10-28T09:56:52.165Z,3.33
2022-10-28T09:57:53.996Z,2.90
2022-10-28T09:58:59.965Z,3.60
2022-10-28T10:00:01.634Z,3.30
2022-10-28T10:01:04.951Z,2.90
2022-10-28T10:02:27.055Z,3.60
2022-10-28T10:03:28.923Z,3.20
2022-10-28T10:04:35.675Z,3.50
2022-10-28T10:05:44.633Z,3.33
2022-10-28T10:06:52.774Z,3.20
2022-10-28T10:08:01.306Z,3.50
2022-10-28T10:09:03.731Z,3.33
2022-10-28T10:10:13.816Z,3.10
2022-10-28T10:11:27.544Z,3.00
2022-10-28T10:12:31.569Z,3.80
2022-10-28T10:13:37.808Z,3.30
2022-10-28T10:14:45.187Z,3.10
2022-10-28T10:15:50.926Z,3.23
2022-10-28T10:16:56.508Z,3.40
2022-10-28T10:18:02.156Z,3.00
2022-10-28T10:19:06.330Z,3.20
2022-10-28T10:20:13.111Z,3.20
2022-10-28T10:21:16.189Z,3.20
2022-10-28T10:22:39.280Z,3.70
2022-10-28T10:23:41.440Z,3.60
2022-10-28T10:24:45.443Z,3.83
2022-10-28T10:25:59.829Z,3.60
2022-10-28T10:27:12.231Z,3.30
2022-10-28T10:28:16.640Z,3.80
2022-10-28T10:29:18.830Z,3.30
2022-10-28T10:30:39.666Z,3.37
2022-10-28T10:31:41.679Z,3.53
2022-10-28T10:32:47.144Z,3.80
2022-10-28T10:33:52.189Z,3.87
2022-10-28T10:35:28.172Z,3.80
2022-10-28T10:36:31.425Z,3.20
2022-10-28T10:37:41.421Z,3.20
2022-10-28T10:38:55.682Z,3.77
2022-10-28T10:40:16.413Z,3.57
2022-10-28T10:41:37.419Z,2.83
2022-10-28T10:42:46.612Z,3.40
2022-10-28T10:43:59.229Z,3.10
2022-10-28T10:45:16.045Z,2.80
2022-10-28T10:46:18.033Z,3.20
2022-10-28T10:47:20.707Z,4.10
2022-10-28T10:48:22.344Z,3.57
2022-10-28T10:49:23.917Z,2.87
2022-10-28T10:51:41.207Z,3.30
2022-10-28T10:52:53.207Z,3.30
2022-10-28T10:54:01.364Z,3.30
2022-10-28T10:55:18.937Z,3.77
2022-10-28T10:56:29.685Z,3.70
2022-10-28T10:57:32.203Z,3.20
2022-10-28T10:58:40.498Z,3.80
2022-10-28T10:59:46.188Z,3.83
2022-10-28T11:00:50.391Z,3.60
2022-10-28T11:01:52.774Z,3.20
2022-10-28T11:02:56.124Z,3.67
2022-10-28T11:04:00.668Z,3.97
2022-10-28T11:05:04.359Z,3.80
2022-10-28T11:06:24.828Z,2.83
2022-10-28T11:07:28.260Z,3.53
2022-10-28T11:08:37.175Z,3.53
2022-10-28T11:09:42.490Z,3.70
2022-10-28T11:10:44.190Z,2.80
2022-10-28T11:11:45.880Z,3.33
2022-10-28T11:13:12.087Z,3.07
2022-10-28T11:14:13.649Z,3.40
2022-10-28T11:15:25.894Z,3.10
2022-10-28T11:16:27.803Z,3.90
2022-10-28T11:18:43.542Z,3.50
2022-10-28T11:19:45.385Z,2.70
2022-10-28T11:21:14.596Z,3.37
2022-10-28T11:22:42.974Z,3.80
2022-10-28T11:24:00.613Z,4.80
2022-10-28T11:25:10.759Z,3.10
2022-10-28T11:26:15.959Z,4.07
2022-10-28T11:27:51.707Z,5.20
2022-10-28T11:29:14.612Z,2.67
2022-10-28T11:30:19.226Z,3.33
2022-10-28T11:31:46.556Z,3.30
2022-10-28T11:33:02.020Z,3.63
2022-10-28T11:34:37.706Z,3.70
2022-10-28T11:36:09.606Z,3.17
2022-10-28T11:37:21.654Z,3.13
2022-10-28T11:38:35.743Z,3.30
2022-10-28T11:39:49.324Z,3.23
2022-10-28T11:40:59.804Z,3.00
2022-10-28T11:42:32.674Z,3.57
2022-10-28T11:44:02.255Z,3.20
2022-10-28T11:45:31.203Z,2.80
2022-10-28T11:47:06.568Z,3.30
2022-10-28T11:48:24.533Z,3.50
2022-10-28T11:49:59.060Z,3.50
2022-10-28T11:51:19.286Z,3.37
2022-10-28T11:52:42.695Z,3.13
2022-10-28T11:54:08.495Z,3.00
2022-10-28T11:55:33.725Z,4.60
2022-10-28T11:56:37.472Z,4.30
2022-10-28T11:57:53.091Z,4.37
2022-10-28T11:59:26.820Z,3.40
2022-10-28T12:00:39.400Z,3.53
2022-10-28T12:01:45.232Z,3.70
2022-10-28T12:03:07.205Z,3.60
2022-10-28T12:04:20.478Z,4.37
2022-10-28T12:05:44.824Z,3.40
2022-10-28T12:06:54.379Z,5.60
2022-10-28T12:08:17.341Z,3.87
2022-10-28T12:09:21.493Z,3.40
2022-10-28T12:10:42.872Z,3.60
2022-10-28T12:11:44.810Z,2.93
2022-10-28T12:13:01.334Z,4.70
2022-10-28T12:14:13.275Z,3.10
2022-10-28T12:15:40.664Z,3.37
2022-10-28T12:17:06.498Z,4.00
2022-10-28T12:18:18.805Z,4.43
2022-10-28T12:19:37.423Z,3.13
2022-10-28T12:20:53.819Z,2.80
2022-10-28T12:22:07.239Z,3.10
2022-10-28T12:23:16.808Z,3.73
2022-10-28T12:24:22.104Z,3.37
2022-10-28T12:25:32.337Z,4.00
2022-10-28T12:26:48.889Z,3.90
2022-10-28T12:27:54.178Z,3.50
2022-10-28T12:29:01.048Z,3.00
2022-10-28T12:30:21.477Z,3.20
2022-10-28T12:31:25.314Z,3.47
2022-10-28T12:32:34.205Z,3.47
2022-10-28T12:33:46.056Z,2.83
2022-10-28T12:34:54.465Z,5.73
2022-10-28T12:36:18.041Z,3.70
2022-10-28T12:37:27.672Z,4.20
2022-10-28T12:38:40.243Z,3.47
2022-10-28T12:40:06.695Z,3.07
2022-10-28T12:41:18.553Z,6.23
2022-10-28T12:42:34.022Z,4.80
2022-10-28T12:43:42.513Z,3.63
2022-10-28T12:44:46.811Z,3.20
2022-10-28T12:45:56.233Z,3.50
2022-10-28T12:47:14.007Z,9.90
2022-10-28T12:48:24.099Z,12.80
2022-10-28T12:49:25.747Z,4.93
2022-10-28T12:50:42.394Z,5.33
2022-10-28T12:51:44.635Z,4.40
2022-10-28T12:52:54.208Z,10.00
2022-10-28T12:54:05.686Z,7.60
2022-10-28T12:56:40.335Z,3.20
2022-10-28T12:57:47.167Z,3.90
2022-10-28T12:59:00.852Z,6.50
2022-10-28T13:00:26.322Z,7.90
2022-10-28T13:01:30.963Z,5.40
2022-10-28T13:02:40.649Z,6.60
2022-10-28T13:03:42.485Z,5.60
2022-10-28T13:04:44.251Z,7.60
2022-10-28T13:06:05.140Z,4.80
2022-10-28T13:07:33.245Z,7.00
2022-10-28T13:09:02.271Z,6.30
2022-10-28T13:10:28.857Z,4.00
2022-10-28T13:12:00.877Z,4.57
2022-10-28T13:13:12.602Z,4.30
2022-10-28T13:14:24.836Z,8.40
2022-10-28T13:15:36.435Z,2.63
2022-10-28T13:17:05.969Z,5.87
2022-10-28T13:18:34.677Z,15.13
2022-10-28T13:19:36.249Z,5.53
2022-10-28T13:20:59.456Z,4.07
2022-10-28T13:22:25.169Z,5.03
2022-10-28T13:23:42.756Z,3.67
2022-10-28T13:24:59.422Z,4.03
2022-10-28T13:26:47.447Z,4.40
2022-10-28T13:27:59.150Z,6.33
2022-10-28T13:29:04.560Z,3.43
2022-10-28T13:30:08.528Z,3.60
2022-10-28T13:31:10.440Z,4.43
2022-10-28T13:32:38.468Z,4.93
2022-10-28T13:33:57.729Z,4.80
2022-10-28T13:35:00.933Z,3.60
2022-10-28T13:36:25.288Z,4.40
2022-10-28T13:37:35.494Z,4.07
2022-10-28T13:38:38.459Z,4.53
2022-10-28T13:39:44.169Z,4.97
2022-10-28T13:40:45.791Z,4.80
2022-10-28T13:41:48.856Z,5.37
2022-10-28T13:42:51.153Z,4.07
2022-10-28T13:43:54.332Z,7.53
2022-10-28T13:45:03.826Z,5.50
2022-10-28T13:46:05.532Z,5.90
2022-10-28T13:47:33.131Z,4.47
2022-10-28T13:48:45.242Z,4.10
2022-10-28T13:50:05.545Z,5.60
2022-10-28T13:51:10.322Z,6.43
2022-10-28T13:52:13.148Z,4.70
2022-10-28T13:53:29.939Z,4.87
2022-10-28T13:54:38.815Z,4.80
2022-10-28T13:55:44.107Z,4.27
2022-10-28T13:56:49.606Z,4.73
2022-10-28T13:58:00.126Z,4.17
2022-10-28T13:59:06.250Z,4.00
2022-10-28T14:02:01.265Z,3.43
2022-10-28T14:03:24.287Z,3.47
2022-10-28T14:04:35.315Z,3.40
2022-10-28T14:05:36.987Z,3.67
2022-10-28T14:06:38.728Z,2.97
2022-10-28T14:07:58.592Z,3.43
2022-10-28T14:09:00.827Z,2.90
2022-10-28T14:10:21.007Z,3.27
2022-10-28T14:11:24.788Z,3.87
2022-10-28T14:12:32.326Z,3.30
2022-10-28T14:13:56.843Z,3.27
2022-10-28T14:15:20.757Z,3.03
2022-10-28T14:16:25.069Z,3.40
2022-10-28T14:17:34.663Z,3.23
2022-10-28T14:18:43.742Z,3.20
2022-10-28T14:19:51.813Z,3.47
2022-10-28T14:21:00.523Z,4.60
2022-10-28T14:22:08.201Z,3.60
2022-10-28T14:23:22.124Z,3.30
2022-10-28T14:24:43.097Z,4.13
2022-10-28T14:25:44.777Z,3.57
2022-10-28T14:27:05.371Z,3.27
2022-10-28T14:28:29.223Z,3.93
2022-10-28T14:29:30.865Z,3.37
2022-10-28T14:30:32.487Z,3.57
2022-10-28T14:31:39.983Z,3.83
2022-10-28T14:33:00.753Z,4.20
2022-10-28T14:34:02.284Z,3.30
2022-10-28T14:35:15.516Z,3.43
2022-10-28T14:36:20.148Z,4.07
2022-10-28T14:37:58.913Z,3.23
2022-10-28T14:39:03.744Z,3.80
2022-10-28T14:40:16.352Z,3.40
2022-10-28T14:41:23.785Z,4.20
2022-10-28T14:43:03.063Z,3.87
2022-10-28T14:44:23.646Z,5.03
2022-10-28T14:45:50.211Z,6.67
2022-10-28T14:47:06.736Z,6.60
2022-10-28T14:48:22.019Z,6.03
2022-10-28T14:49:30.410Z,13.57
2022-10-28T14:50:40.178Z,17.47
2022-10-28T14:51:43.829Z,9.80
2022-10-28T14:52:47.927Z,6.03
2022-10-28T14:53:54.856Z,9.90
2022-10-28T14:54:59.685Z,4.83
2022-10-28T14:56:19.929Z,4.30
2022-10-28T14:57:31.012Z,3.60
2022-10-28T14:58:41.687Z,3.97
2022-10-28T14:59:44.568Z,4.70
2022-10-28T15:01:16.494Z,4.90
2022-10-28T15:02:38.985Z,4.50
2022-10-28T15:03:42.192Z,4.37
2022-10-28T15:04:46.176Z,3.43
2022-10-28T15:05:47.753Z,4.27
2022-10-28T15:06:51.455Z,3.93
2022-10-28T15:07:53.953Z,4.53
2022-10-28T15:08:56.892Z,3.67
2022-10-28T15:09:58.938Z,3.93
2022-10-28T15:11:00.587Z,4.50